sensor_id;sensor_type;location;lat;lon;timestamp;temperature;humidity
53045;DHT22;38930;52.766;6.884;2022-10-16T00:00:45;12.40;99.90
53045;DHT22;38930;52.766;6.884;2022-10-16T00:03:11;12.40;99.90
53045;DHT22;38930;52.766;6.884;2022-10-16T00:05:44;12.50;99.90
53045;DHT22;38930;52.766;6.884;2022-10-16T00:08:11;12.40;99.90
53045;DHT22;38930;52.766;6.884;2022-10-16T00:10:37;12.50;99.90
53045;DHT22;38930;52.766;6.884;2022-10-16T00:13:03;12.90;99.90
53045;DHT22;38930;52.766;6.884;2022-10-16T00:15:29;12.50;99.90
53045;DHT22;38930;52.766;6.884;2022-10-16T00:17:55;12.40;99.90
53045;DHT22;38930;52.766;6.884;2022-10-16T00:20:21;12.60;99.90
53045;DHT22;38930;52.766;6.884;2022-10-16T00:22:46;12.50;99.90
53045;DHT22;38930;52.766;6.884;2022-10-16T00:25:12;12.50;99.90
53045;DHT22;38930;52.766;6.884;2022-10-16T00:27:37;12.20;99.90
53045;DHT22;38930;52.766;6.884;2022-10-16T00:30:03;12.60;99.90
53045;DHT22;38930;52.766;6.884;2022-10-16T00:32:29;12.40;99.90
53045;DHT22;38930;52.766;6.884;2022-10-16T00:34:55;12.50;99.90
53045;DHT22;38930;52.766;6.884;2022-10-16T00:37:21;12.50;99.90
53045;DHT22;38930;52.766;6.884;2022-10-16T00:39:46;12.60;99.90
53045;DHT22;38930;52.766;6.884;2022-10-16T00:42:17;12.50;99.90
53045;DHT22;38930;52.766;6.884;2022-10-16T00:44:50;12.50;99.90
53045;DHT22;38930;52.766;6.884;2022-10-16T00:47:43;12.50;99.90
53045;DHT22;38930;52.766;6.884;2022-10-16T00:52:50;12.50;99.90
53045;DHT22;38930;52.766;6.884;2022-10-16T00:55:16;12.50;99.90
53045;DHT22;38930;52.766;6.884;2022-10-16T00:57:42;12.50;99.90
53045;DHT22;38930;52.766;6.884;2022-10-16T01:00:09;13.10;99.90
53045;DHT22;38930;52.766;6.884;2022-10-16T01:02:36;12.40;99.90
53045;DHT22;38930;52.766;6.884;2022-10-16T01:05:02;13.00;99.90
53045;DHT22;38930;52.766;6.884;2022-10-16T01:07:50;12.40;99.90
53045;DHT22;38930;52.766;6.884;2022-10-16T01:10:33;12.40;99.90
53045;DHT22;38930;52.766;6.884;2022-10-16T01:15:42;12.40;99.90
53045;DHT22;38930;52.766;6.884;2022-10-16T01:20:57;12.50;99.90
53045;DHT22;38930;52.766;6.884;2022-10-16T01:28:51;12.40;99.90
53045;DHT22;38930;52.766;6.884;2022-10-16T01:31:20;12.40;99.90
53045;DHT22;38930;52.766;6.884;2022-10-16T01:33:56;12.40;99.90
53045;DHT22;38930;52.766;6.884;2022-10-16T01:36:34;12.40;99.90
53045;DHT22;38930;52.766;6.884;2022-10-16T01:39:02;12.30;99.90
53045;DHT22;38930;52.766;6.884;2022-10-16T01:41:30;12.40;99.90
53045;DHT22;38930;52.766;6.884;2022-10-16T01:44:06;12.40;99.90
53045;DHT22;38930;52.766;6.884;2022-10-16T01:46:34;12.30;99.90
53045;DHT22;38930;52.766;6.884;2022-10-16T01:49:02;12.30;99.90
53045;DHT22;38930;52.766;6.884;2022-10-16T01:51:29;12.30;99.90
53045;DHT22;38930;52.766;6.884;2022-10-16T01:53:58;12.60;99.90
53045;DHT22;38930;52.766;6.884;2022-10-16T01:56:25;12.30;99.90
53045;DHT22;38930;52.766;6.884;2022-10-16T01:59:05;12.50;99.90
53045;DHT22;38930;52.766;6.884;2022-10-16T02:01:34;12.50;99.90
53045;DHT22;38930;52.766;6.884;2022-10-16T02:04:09;12.30;99.90
53045;DHT22;38930;52.766;6.884;2022-10-16T02:06:37;12.20;99.90
53045;DHT22;38930;52.766;6.884;2022-10-16T02:09:03;12.20;99.90
53045;DHT22;38930;52.766;6.884;2022-10-16T02:11:28;12.30;99.90
53045;DHT22;38930;52.766;6.884;2022-10-16T02:14:06;12.30;99.90
53045;DHT22;38930;52.766;6.884;2022-10-16T02:16:36;12.30;99.90
53045;DHT22;38930;52.766;6.884;2022-10-16T02:19:02;12.30;99.90
53045;DHT22;38930;52.766;6.884;2022-10-16T02:21:32;12.30;99.90
53045;DHT22;38930;52.766;6.884;2022-10-16T02:24:27;12.30;99.90
53045;DHT22;38930;52.766;6.884;2022-10-16T02:29:33;12.30;99.90
53045;DHT22;38930;52.766;6.884;2022-10-16T02:32:02;12.70;99.90
53045;DHT22;38930;52.766;6.884;2022-10-16T02:34:32;12.30;99.90
53045;DHT22;38930;52.766;6.884;2022-10-16T02:36:59;12.80;99.90
53045;DHT22;38930;52.766;6.884;2022-10-16T02:39:27;12.30;99.90
53045;DHT22;38930;52.766;6.884;2022-10-16T02:41:54;12.40;99.90
53045;DHT22;38930;52.766;6.884;2022-10-16T02:44:20;12.20;99.90
53045;DHT22;38930;52.766;6.884;2022-10-16T02:46:45;12.60;99.90
53045;DHT22;38930;52.766;6.884;2022-10-16T02:49:11;12.30;99.90
53045;DHT22;38930;52.766;6.884;2022-10-16T02:51:36;12.20;99.90
53045;DHT22;38930;52.766;6.884;2022-10-16T02:54:02;12.30;99.90
53045;DHT22;38930;52.766;6.884;2022-10-16T02:56:28;12.30;99.90
53045;DHT22;38930;52.766;6.884;2022-10-16T02:58:55;12.60;99.90
53045;DHT22;38930;52.766;6.884;2022-10-16T03:01:21;12.50;99.90
53045;DHT22;38930;52.766;6.884;2022-10-16T03:03:46;12.40;99.90
53045;DHT22;38930;52.766;6.884;2022-10-16T03:06:12;12.60;99.90
53045;DHT22;38930;52.766;6.884;2022-10-16T03:08:38;12.40;99.90
53045;DHT22;38930;52.766;6.884;2022-10-16T03:11:04;13.10;99.90
53045;DHT22;38930;52.766;6.884;2022-10-16T03:13:29;12.50;99.90
53045;DHT22;38930;52.766;6.884;2022-10-16T03:15:55;12.50;99.90
53045;DHT22;38930;52.766;6.884;2022-10-16T03:18:21;12.60;99.90
53045;DHT22;38930;52.766;6.884;2022-10-16T03:20:46;12.60;99.90
53045;DHT22;38930;52.766;6.884;2022-10-16T03:23:12;12.60;99.90
53045;DHT22;38930;52.766;6.884;2022-10-16T03:25:38;12.60;99.90
53045;DHT22;38930;52.766;6.884;2022-10-16T03:28:04;12.60;99.90
53045;DHT22;38930;52.766;6.884;2022-10-16T03:30:29;12.60;99.90
53045;DHT22;38930;52.766;6.884;2022-10-16T03:32:55;12.70;99.90
53045;DHT22;38930;52.766;6.884;2022-10-16T03:35:22;13.00;99.90
53045;DHT22;38930;52.766;6.884;2022-10-16T03:37:48;12.70;99.90
53045;DHT22;38930;52.766;6.884;2022-10-16T03:40:14;12.80;99.90
53045;DHT22;38930;52.766;6.884;2022-10-16T03:42:41;12.50;99.90
53045;DHT22;38930;52.766;6.884;2022-10-16T03:45:07;12.80;99.90
53045;DHT22;38930;52.766;6.884;2022-10-16T03:47:32;12.80;99.90
53045;DHT22;38930;52.766;6.884;2022-10-16T03:49:59;12.80;99.90
53045;DHT22;38930;52.766;6.884;2022-10-16T03:52:25;12.90;99.90
53045;DHT22;38930;52.766;6.884;2022-10-16T03:54:51;12.90;99.90
53045;DHT22;38930;52.766;6.884;2022-10-16T03:57:17;12.60;99.90
53045;DHT22;38930;52.766;6.884;2022-10-16T03:59:43;12.90;99.90
53045;DHT22;38930;52.766;6.884;2022-10-16T04:02:09;13.30;99.90
53045;DHT22;38930;52.766;6.884;2022-10-16T04:04:34;13.30;99.90
53045;DHT22;38930;52.766;6.884;2022-10-16T04:07:00;12.90;99.90
53045;DHT22;38930;52.766;6.884;2022-10-16T04:09:26;12.90;99.90
53045;DHT22;38930;52.766;6.884;2022-10-16T04:11:51;12.80;99.90
53045;DHT22;38930;52.766;6.884;2022-10-16T04:14:17;12.60;99.90
53045;DHT22;38930;52.766;6.884;2022-10-16T04:16:42;12.80;99.90
53045;DHT22;38930;52.766;6.884;2022-10-16T04:19:09;13.20;99.90
53045;DHT22;38930;52.766;6.884;2022-10-16T04:21:35;12.80;99.90
53045;DHT22;38930;52.766;6.884;2022-10-16T04:24:00;12.70;99.90
53045;DHT22;38930;52.766;6.884;2022-10-16T04:26:26;12.70;99.90
53045;DHT22;38930;52.766;6.884;2022-10-16T04:28:51;12.70;99.90
53045;DHT22;38930;52.766;6.884;2022-10-16T04:31:17;12.80;99.90
53045;DHT22;38930;52.766;6.884;2022-10-16T04:33:43;12.80;99.90
53045;DHT22;38930;52.766;6.884;2022-10-16T04:36:09;13.10;99.90
53045;DHT22;38930;52.766;6.884;2022-10-16T04:38:34;12.60;99.90
53045;DHT22;38930;52.766;6.884;2022-10-16T04:41:03;12.60;99.90
53045;DHT22;38930;52.766;6.884;2022-10-16T04:43:28;12.60;99.90
53045;DHT22;38930;52.766;6.884;2022-10-16T04:45:54;12.30;99.90
53045;DHT22;38930;52.766;6.884;2022-10-16T04:48:20;12.80;99.90
53045;DHT22;38930;52.766;6.884;2022-10-16T04:50:45;12.60;99.90
53045;DHT22;38930;52.766;6.884;2022-10-16T04:53:11;12.60;99.90
53045;DHT22;38930;52.766;6.884;2022-10-16T04:55:37;12.60;99.90
53045;DHT22;38930;52.766;6.884;2022-10-16T04:58:03;13.30;99.90
53045;DHT22;38930;52.766;6.884;2022-10-16T05:00:29;12.50;99.90
53045;DHT22;38930;52.766;6.884;2022-10-16T05:02:55;12.50;99.90
53045;DHT22;38930;52.766;6.884;2022-10-16T05:05:20;12.60;99.90
53045;DHT22;38930;52.766;6.884;2022-10-16T05:07:49;13.00;99.90
53045;DHT22;38930;52.766;6.884;2022-10-16T05:10:15;12.50;99.90
53045;DHT22;38930;52.766;6.884;2022-10-16T05:12:41;12.50;99.90
53045;DHT22;38930;52.766;6.884;2022-10-16T05:15:07;12.50;99.90
53045;DHT22;38930;52.766;6.884;2022-10-16T05:17:33;12.50;99.90
53045;DHT22;38930;52.766;6.884;2022-10-16T05:19:58;12.50;99.90
53045;DHT22;38930;52.766;6.884;2022-10-16T05:22:24;12.50;99.90
53045;DHT22;38930;52.766;6.884;2022-10-16T05:24:49;13.00;99.90
53045;DHT22;38930;52.766;6.884;2022-10-16T05:27:15;12.50;99.90
53045;DHT22;38930;52.766;6.884;2022-10-16T05:29:48;12.50;99.90
53045;DHT22;38930;52.766;6.884;2022-10-16T05:32:16;12.40;99.90
53045;DHT22;38930;52.766;6.884;2022-10-16T05:34:42;12.40;99.90
53045;DHT22;38930;52.766;6.884;2022-10-16T05:37:08;12.50;99.90
53045;DHT22;38930;52.766;6.884;2022-10-16T05:39:33;12.40;99.90
53045;DHT22;38930;52.766;6.884;2022-10-16T05:41:59;12.40;99.90
53045;DHT22;38930;52.766;6.884;2022-10-16T05:44:25;12.60;99.90
53045;DHT22;38930;52.766;6.884;2022-10-16T05:46:50;12.80;99.90
53045;DHT22;38930;52.766;6.884;2022-10-16T05:49:16;12.00;99.90
53045;DHT22;38930;52.766;6.884;2022-10-16T05:51:42;12.30;99.90
53045;DHT22;38930;52.766;6.884;2022-10-16T05:54:08;12.30;99.90
53045;DHT22;38930;52.766;6.884;2022-10-16T05:56:34;12.30;99.90
53045;DHT22;38930;52.766;6.884;2022-10-16T05:58:59;12.30;99.90
53045;DHT22;38930;52.766;6.884;2022-10-16T06:01:25;12.40;99.90
53045;DHT22;38930;52.766;6.884;2022-10-16T06:03:51;12.50;99.90
53045;DHT22;38930;52.766;6.884;2022-10-16T06:06:19;12.30;99.90
53045;DHT22;38930;52.766;6.884;2022-10-16T06:08:46;12.30;99.90
53045;DHT22;38930;52.766;6.884;2022-10-16T06:11:15;12.40;99.90
53045;DHT22;38930;52.766;6.884;2022-10-16T06:13:41;12.40;99.90
53045;DHT22;38930;52.766;6.884;2022-10-16T06:16:09;12.40;99.90
53045;DHT22;38930;52.766;6.884;2022-10-16T06:18:35;12.30;99.90
53045;DHT22;38930;52.766;6.884;2022-10-16T06:21:11;12.40;99.90
53045;DHT22;38930;52.766;6.884;2022-10-16T06:23:37;12.40;99.90
53045;DHT22;38930;52.766;6.884;2022-10-16T06:26:11;12.40;99.90
53045;DHT22;38930;52.766;6.884;2022-10-16T06:28:38;12.40;99.90
53045;DHT22;38930;52.766;6.884;2022-10-16T06:31:05;12.80;99.90
53045;DHT22;38930;52.766;6.884;2022-10-16T06:33:31;12.50;99.90
53045;DHT22;38930;52.766;6.884;2022-10-16T06:36:02;12.70;99.90
53045;DHT22;38930;52.766;6.884;2022-10-16T06:38:29;13.00;99.90
53045;DHT22;38930;52.766;6.884;2022-10-16T06:40:54;12.50;99.90
53045;DHT22;38930;52.766;6.884;2022-10-16T06:43:20;12.50;99.90
53045;DHT22;38930;52.766;6.884;2022-10-16T06:45:53;12.60;99.90
53045;DHT22;38930;52.766;6.884;2022-10-16T06:48:19;12.70;99.90
53045;DHT22;38930;52.766;6.884;2022-10-16T06:51:04;12.60;99.90
53045;DHT22;38930;52.766;6.884;2022-10-16T06:53:33;12.60;99.90
53045;DHT22;38930;52.766;6.884;2022-10-16T06:56:10;12.70;99.90
53045;DHT22;38930;52.766;6.884;2022-10-16T06:58:36;12.80;99.90
53045;DHT22;38930;52.766;6.884;2022-10-16T07:01:02;12.70;99.90
53045;DHT22;38930;52.766;6.884;2022-10-16T07:03:28;12.70;99.90
53045;DHT22;38930;52.766;6.884;2022-10-16T07:05:53;12.90;99.90
53045;DHT22;38930;52.766;6.884;2022-10-16T07:08:19;12.80;99.90
53045;DHT22;38930;52.766;6.884;2022-10-16T07:10:44;12.80;99.90
53045;DHT22;38930;52.766;6.884;2022-10-16T07:13:10;12.90;99.90
53045;DHT22;38930;52.766;6.884;2022-10-16T07:15:39;12.90;99.90
53045;DHT22;38930;52.766;6.884;2022-10-16T07:18:04;13.30;99.90
53045;DHT22;38930;52.766;6.884;2022-10-16T07:20:30;13.00;99.90
53045;DHT22;38930;52.766;6.884;2022-10-16T07:22:55;13.00;99.90
53045;DHT22;38930;52.766;6.884;2022-10-16T07:25:21;13.00;99.90
53045;DHT22;38930;52.766;6.884;2022-10-16T07:27:46;12.70;99.90
53045;DHT22;38930;52.766;6.884;2022-10-16T07:30:12;13.10;99.90
53045;DHT22;38930;52.766;6.884;2022-10-16T07:32:38;13.10;99.90
53045;DHT22;38930;52.766;6.884;2022-10-16T07:35:04;13.10;99.90
53045;DHT22;38930;52.766;6.884;2022-10-16T07:37:29;13.10;99.90
53045;DHT22;38930;52.766;6.884;2022-10-16T07:39:55;13.10;99.90
53045;DHT22;38930;52.766;6.884;2022-10-16T07:42:20;13.20;99.90
53045;DHT22;38930;52.766;6.884;2022-10-16T07:44:46;13.30;99.90
53045;DHT22;38930;52.766;6.884;2022-10-16T07:47:12;13.40;99.90
53045;DHT22;38930;52.766;6.884;2022-10-16T07:49:37;13.90;99.90
53045;DHT22;38930;52.766;6.884;2022-10-16T07:52:03;13.60;99.90
53045;DHT22;38930;52.766;6.884;2022-10-16T07:54:29;13.60;99.90
53045;DHT22;38930;52.766;6.884;2022-10-16T07:56:54;13.60;99.90
53045;DHT22;38930;52.766;6.884;2022-10-16T07:59:20;13.60;99.90
53045;DHT22;38930;52.766;6.884;2022-10-16T08:01:46;13.60;99.90
53045;DHT22;38930;52.766;6.884;2022-10-16T08:04:12;13.70;99.90
53045;DHT22;38930;52.766;6.884;2022-10-16T08:06:39;13.70;99.90
53045;DHT22;38930;52.766;6.884;2022-10-16T08:09:06;13.70;99.90
53045;DHT22;38930;52.766;6.884;2022-10-16T08:11:32;13.70;99.90
53045;DHT22;38930;52.766;6.884;2022-10-16T08:13:58;14.10;99.90
53045;DHT22;38930;52.766;6.884;2022-10-16T08:16:24;13.80;99.90
53045;DHT22;38930;52.766;6.884;2022-10-16T08:18:50;13.90;99.90
53045;DHT22;38930;52.766;6.884;2022-10-16T08:21:17;13.90;99.90
53045;DHT22;38930;52.766;6.884;2022-10-16T08:23:43;14.70;99.90
53045;DHT22;38930;52.766;6.884;2022-10-16T08:26:10;13.90;99.90
53045;DHT22;38930;52.766;6.884;2022-10-16T08:28:36;14.10;99.90
53045;DHT22;38930;52.766;6.884;2022-10-16T08:31:07;14.10;99.90
53045;DHT22;38930;52.766;6.884;2022-10-16T08:33:32;14.10;99.90
53045;DHT22;38930;52.766;6.884;2022-10-16T08:36:00;14.20;99.90
53045;DHT22;38930;52.766;6.884;2022-10-16T08:38:26;14.20;99.90
53045;DHT22;38930;52.766;6.884;2022-10-16T08:40:52;14.30;99.90
53045;DHT22;38930;52.766;6.884;2022-10-16T08:43:43;14.40;99.90
53045;DHT22;38930;52.766;6.884;2022-10-16T08:46:37;14.40;99.90
53045;DHT22;38930;52.766;6.884;2022-10-16T08:49:10;14.50;99.90
53045;DHT22;38930;52.766;6.884;2022-10-16T08:51:38;14.60;99.90
53045;DHT22;38930;52.766;6.884;2022-10-16T08:54:21;15.00;99.90
53045;DHT22;38930;52.766;6.884;2022-10-16T08:56:48;15.20;99.90
53045;DHT22;38930;52.766;6.884;2022-10-16T08:59:14;14.80;99.90
53045;DHT22;38930;52.766;6.884;2022-10-16T09:01:44;14.90;99.90
53045;DHT22;38930;52.766;6.884;2022-10-16T09:07:24;15.00;99.90
53045;DHT22;38930;52.766;6.884;2022-10-16T09:13:02;15.10;99.90
53045;DHT22;38930;52.766;6.884;2022-10-16T09:20:51;15.20;99.90
53045;DHT22;38930;52.766;6.884;2022-10-16T09:23:26;15.30;99.90
53045;DHT22;38930;52.766;6.884;2022-10-16T09:25:53;15.30;99.90
53045;DHT22;38930;52.766;6.884;2022-10-16T09:28:19;15.90;99.90
53045;DHT22;38930;52.766;6.884;2022-10-16T09:30:46;15.40;99.90
53045;DHT22;38930;52.766;6.884;2022-10-16T09:33:14;15.50;99.90
53045;DHT22;38930;52.766;6.884;2022-10-16T09:35:47;15.60;99.90
53045;DHT22;38930;52.766;6.884;2022-10-16T09:40:50;15.60;99.90
53045;DHT22;38930;52.766;6.884;2022-10-16T09:43:19;15.80;99.90
53045;DHT22;38930;52.766;6.884;2022-10-16T09:48:55;15.90;99.90
53045;DHT22;38930;52.766;6.884;2022-10-16T09:51:36;16.20;99.90
53045;DHT22;38930;52.766;6.884;2022-10-16T09:54:17;16.10;99.90
53045;DHT22;38930;52.766;6.884;2022-10-16T09:56:43;16.10;99.90
53045;DHT22;38930;52.766;6.884;2022-10-16T09:59:21;16.20;99.90
53045;DHT22;38930;52.766;6.884;2022-10-16T10:01:53;16.20;99.90
53045;DHT22;38930;52.766;6.884;2022-10-16T10:04:24;16.30;99.90
53045;DHT22;38930;52.766;6.884;2022-10-16T10:06:55;16.30;99.90
53045;DHT22;38930;52.766;6.884;2022-10-16T10:09:27;16.30;99.90
53045;DHT22;38930;52.766;6.884;2022-10-16T10:11:59;16.30;99.90
53045;DHT22;38930;52.766;6.884;2022-10-16T10:16:53;16.30;99.90
53045;DHT22;38930;52.766;6.884;2022-10-16T10:19:27;16.20;99.90
53045;DHT22;38930;52.766;6.884;2022-10-16T10:21:53;16.40;99.90
53045;DHT22;38930;52.766;6.884;2022-10-16T10:24:19;16.70;99.90
53045;DHT22;38930;52.766;6.884;2022-10-16T10:29:42;16.50;99.90
53045;DHT22;38930;52.766;6.884;2022-10-16T10:32:19;16.60;99.90
53045;DHT22;38930;52.766;6.884;2022-10-16T10:35:13;16.60;99.90
53045;DHT22;38930;52.766;6.884;2022-10-16T10:40:51;16.70;99.90
53045;DHT22;38930;52.766;6.884;2022-10-16T10:45:52;17.00;99.90
53045;DHT22;38930;52.766;6.884;2022-10-16T10:50:54;17.30;99.90
53045;DHT22;38930;52.766;6.884;2022-10-16T10:53:45;17.50;99.90
53045;DHT22;38930;52.766;6.884;2022-10-16T11:02:10;17.00;99.90
53045;DHT22;38930;52.766;6.884;2022-10-16T11:07:30;17.20;99.90
53045;DHT22;38930;52.766;6.884;2022-10-16T11:10:12;17.30;99.90
53045;DHT22;38930;52.766;6.884;2022-10-16T11:12:45;17.20;99.90
53045;DHT22;38930;52.766;6.884;2022-10-16T11:15:19;17.00;99.90
53045;DHT22;38930;52.766;6.884;2022-10-16T11:18:06;17.10;99.90
53045;DHT22;38930;52.766;6.884;2022-10-16T11:20:37;17.10;99.90
53045;DHT22;38930;52.766;6.884;2022-10-16T11:23:14;17.60;99.90
53045;DHT22;38930;52.766;6.884;2022-10-16T11:25:43;17.10;99.90
53045;DHT22;38930;52.766;6.884;2022-10-16T11:28:20;17.00;99.90
53045;DHT22;38930;52.766;6.884;2022-10-16T11:30:49;16.90;99.90
53045;DHT22;38930;52.766;6.884;2022-10-16T11:33:32;16.90;99.90
53045;DHT22;38930;52.766;6.884;2022-10-16T11:38:30;17.10;99.90
53045;DHT22;38930;52.766;6.884;2022-10-16T11:46:48;17.30;99.90
53045;DHT22;38930;52.766;6.884;2022-10-16T11:49:19;17.30;99.90
53045;DHT22;38930;52.766;6.884;2022-10-16T11:54:32;17.00;99.90
53045;DHT22;38930;52.766;6.884;2022-10-16T11:57:02;16.90;99.90
53045;DHT22;38930;52.766;6.884;2022-10-16T11:59:48;16.80;99.90
53045;DHT22;38930;52.766;6.884;2022-10-16T12:07:41;16.90;99.90
53045;DHT22;38930;52.766;6.884;2022-10-16T12:10:24;17.50;99.90
53045;DHT22;38930;52.766;6.884;2022-10-16T12:12:55;17.30;99.90
53045;DHT22;38930;52.766;6.884;2022-10-16T12:15:30;17.10;99.90
53045;DHT22;38930;52.766;6.884;2022-10-16T12:17:56;17.60;99.90
53045;DHT22;38930;52.766;6.884;2022-10-16T12:20:27;17.50;99.90
53045;DHT22;38930;52.766;6.884;2022-10-16T12:23:06;17.80;99.90
53045;DHT22;38930;52.766;6.884;2022-10-16T12:25:33;18.00;99.90
53045;DHT22;38930;52.766;6.884;2022-10-16T12:28:02;18.00;99.90
53045;DHT22;38930;52.766;6.884;2022-10-16T12:30:31;18.10;99.90
53045;DHT22;38930;52.766;6.884;2022-10-16T12:33:32;18.80;99.90
53045;DHT22;38930;52.766;6.884;2022-10-16T12:35:50;18.20;99.90
53045;DHT22;38930;52.766;6.884;2022-10-16T12:38:19;18.30;99.90
53045;DHT22;38930;52.766;6.884;2022-10-16T12:41:03;18.30;99.90
53045;DHT22;38930;52.766;6.884;2022-10-16T12:43:46;18.30;99.90
53045;DHT22;38930;52.766;6.884;2022-10-16T12:48:43;18.40;99.90
53045;DHT22;38930;52.766;6.884;2022-10-16T12:54:15;18.40;99.90
53045;DHT22;38930;52.766;6.884;2022-10-16T12:57:09;18.30;99.90
53045;DHT22;38930;52.766;6.884;2022-10-16T13:00:04;18.30;99.90
53045;DHT22;38930;52.766;6.884;2022-10-16T13:08:16;18.10;99.90
53045;DHT22;38930;52.766;6.884;2022-10-16T13:10:55;18.00;99.90
53045;DHT22;38930;52.766;6.884;2022-10-16T13:22:27;17.80;99.90
53045;DHT22;38930;52.766;6.884;2022-10-16T13:25:22;18.00;99.90
53045;DHT22;38930;52.766;6.884;2022-10-16T13:28:08;17.80;99.90
53045;DHT22;38930;52.766;6.884;2022-10-16T13:30:42;17.80;99.90
53045;DHT22;38930;52.766;6.884;2022-10-16T13:35:56;17.70;99.90
53045;DHT22;38930;52.766;6.884;2022-10-16T13:38:31;17.60;99.90
53045;DHT22;38930;52.766;6.884;2022-10-16T13:41:05;17.60;99.90
53045;DHT22;38930;52.766;6.884;2022-10-16T13:43:49;17.50;99.90
53045;DHT22;38930;52.766;6.884;2022-10-16T13:46:18;17.40;99.90
53045;DHT22;38930;52.766;6.884;2022-10-16T13:48:44;17.40;99.90
53045;DHT22;38930;52.766;6.884;2022-10-16T13:51:16;17.30;99.90
53045;DHT22;38930;52.766;6.884;2022-10-16T13:53:43;17.90;99.90
53045;DHT22;38930;52.766;6.884;2022-10-16T13:56:13;17.30;99.90
53045;DHT22;38930;52.766;6.884;2022-10-16T13:58:39;17.30;99.90
53045;DHT22;38930;52.766;6.884;2022-10-16T14:01:19;17.30;99.90
53045;DHT22;38930;52.766;6.884;2022-10-16T14:03:46;17.30;99.90
53045;DHT22;38930;52.766;6.884;2022-10-16T14:06:15;17.30;99.90
53045;DHT22;38930;52.766;6.884;2022-10-16T14:08:45;17.30;99.90
53045;DHT22;38930;52.766;6.884;2022-10-16T14:11:11;17.20;99.90
53045;DHT22;38930;52.766;6.884;2022-10-16T14:13:40;17.20;99.90
53045;DHT22;38930;52.766;6.884;2022-10-16T14:16:18;17.10;99.90
53045;DHT22;38930;52.766;6.884;2022-10-16T14:18:48;17.00;99.90
53045;DHT22;38930;52.766;6.884;2022-10-16T14:21:18;16.90;99.90
53045;DHT22;38930;52.766;6.884;2022-10-16T14:23:43;17.00;99.90
53045;DHT22;38930;52.766;6.884;2022-10-16T14:28:36;16.90;99.90
53045;DHT22;38930;52.766;6.884;2022-10-16T14:33:45;17.00;99.90
53045;DHT22;38930;52.766;6.884;2022-10-16T14:36:13;16.90;99.90
53045;DHT22;38930;52.766;6.884;2022-10-16T14:38:42;16.90;99.90
53045;DHT22;38930;52.766;6.884;2022-10-16T14:41:08;16.80;99.90
53045;DHT22;38930;52.766;6.884;2022-10-16T14:43:36;16.80;99.90
53045;DHT22;38930;52.766;6.884;2022-10-16T14:46:07;16.80;99.90
53045;DHT22;38930;52.766;6.884;2022-10-16T14:48:34;16.70;99.90
53045;DHT22;38930;52.766;6.884;2022-10-16T14:51:00;16.70;99.90
53045;DHT22;38930;52.766;6.884;2022-10-16T14:53:26;17.00;99.90
53045;DHT22;38930;52.766;6.884;2022-10-16T14:55:51;16.70;99.90
53045;DHT22;38930;52.766;6.884;2022-10-16T14:58:20;16.80;99.90
53045;DHT22;38930;52.766;6.884;2022-10-16T15:00:47;16.70;99.90
53045;DHT22;38930;52.766;6.884;2022-10-16T15:03:13;16.60;99.90
53045;DHT22;38930;52.766;6.884;2022-10-16T15:05:39;16.70;99.90
53045;DHT22;38930;52.766;6.884;2022-10-16T15:08:05;16.70;99.90
53045;DHT22;38930;52.766;6.884;2022-10-16T15:10:31;16.70;99.90
53045;DHT22;38930;52.766;6.884;2022-10-16T15:12:58;16.80;99.90
53045;DHT22;38930;52.766;6.884;2022-10-16T15:15:36;16.90;99.90
53045;DHT22;38930;52.766;6.884;2022-10-16T15:18:02;16.60;99.90
53045;DHT22;38930;52.766;6.884;2022-10-16T15:20:38;16.60;99.90
53045;DHT22;38930;52.766;6.884;2022-10-16T15:23:16;16.90;99.90
53045;DHT22;38930;52.766;6.884;2022-10-16T15:25:44;16.60;99.90
53045;DHT22;38930;52.766;6.884;2022-10-16T15:28:11;16.60;99.90
53045;DHT22;38930;52.766;6.884;2022-10-16T15:30:38;16.60;99.90
53045;DHT22;38930;52.766;6.884;2022-10-16T15:33:05;16.40;99.90
53045;DHT22;38930;52.766;6.884;2022-10-16T15:35:31;16.40;99.90
53045;DHT22;38930;52.766;6.884;2022-10-16T15:37:57;16.10;99.90
53045;DHT22;38930;52.766;6.884;2022-10-16T15:40:23;16.50;99.90
53045;DHT22;38930;52.766;6.884;2022-10-16T15:42:49;16.50;99.90
53045;DHT22;38930;52.766;6.884;2022-10-16T15:45:15;16.20;99.90
53045;DHT22;38930;52.766;6.884;2022-10-16T15:47:42;16.10;99.90
53045;DHT22;38930;52.766;6.884;2022-10-16T15:50:10;16.10;99.90
53045;DHT22;38930;52.766;6.884;2022-10-16T15:52:37;16.10;99.90
53045;DHT22;38930;52.766;6.884;2022-10-16T15:55:08;16.30;99.90
53045;DHT22;38930;52.766;6.884;2022-10-16T15:57:34;16.00;99.90
53045;DHT22;38930;52.766;6.884;2022-10-16T16:00:00;15.90;99.90
53045;DHT22;38930;52.766;6.884;2022-10-16T16:02:26;16.00;99.90
53045;DHT22;38930;52.766;6.884;2022-10-16T16:04:51;15.80;99.90
53045;DHT22;38930;52.766;6.884;2022-10-16T16:07:17;15.90;99.90
53045;DHT22;38930;52.766;6.884;2022-10-16T16:09:43;16.60;99.90
53045;DHT22;38930;52.766;6.884;2022-10-16T16:12:10;16.10;99.90
53045;DHT22;38930;52.766;6.884;2022-10-16T16:14:35;15.60;99.90
53045;DHT22;38930;52.766;6.884;2022-10-16T16:17:01;15.50;99.90
53045;DHT22;38930;52.766;6.884;2022-10-16T16:19:27;15.90;99.90
53045;DHT22;38930;52.766;6.884;2022-10-16T16:21:53;16.10;99.90
53045;DHT22;38930;52.766;6.884;2022-10-16T16:24:18;15.30;99.90
53045;DHT22;38930;52.766;6.884;2022-10-16T16:26:44;15.30;99.90
53045;DHT22;38930;52.766;6.884;2022-10-16T16:29:14;15.20;99.90
53045;DHT22;38930;52.766;6.884;2022-10-16T16:31:41;15.50;99.90
53045;DHT22;38930;52.766;6.884;2022-10-16T16:34:07;15.50;99.90
53045;DHT22;38930;52.766;6.884;2022-10-16T16:36:34;14.90;99.90
53045;DHT22;38930;52.766;6.884;2022-10-16T16:39:00;15.20;99.90
53045;DHT22;38930;52.766;6.884;2022-10-16T16:41:27;14.80;99.90
53045;DHT22;38930;52.766;6.884;2022-10-16T16:43:54;14.70;99.90
53045;DHT22;38930;52.766;6.884;2022-10-16T16:46:20;14.70;99.90
53045;DHT22;38930;52.766;6.884;2022-10-16T16:48:46;14.60;99.90
53045;DHT22;38930;52.766;6.884;2022-10-16T16:51:16;14.50;99.90
53045;DHT22;38930;52.766;6.884;2022-10-16T16:53:45;15.20;99.90
53045;DHT22;38930;52.766;6.884;2022-10-16T16:56:11;14.40;99.90
53045;DHT22;38930;52.766;6.884;2022-10-16T16:58:37;14.40;99.90
53045;DHT22;38930;52.766;6.884;2022-10-16T17:01:03;14.30;99.90
53045;DHT22;38930;52.766;6.884;2022-10-16T17:03:30;14.20;99.90
53045;DHT22;38930;52.766;6.884;2022-10-16T17:06:01;14.00;99.90
53045;DHT22;38930;52.766;6.884;2022-10-16T17:08:32;13.50;99.90
53045;DHT22;38930;52.766;6.884;2022-10-16T17:10:58;14.10;99.90
53045;DHT22;38930;52.766;6.884;2022-10-16T17:13:29;13.10;99.90
53045;DHT22;38930;52.766;6.884;2022-10-16T17:15:56;14.00;99.90
53045;DHT22;38930;52.766;6.884;2022-10-16T17:18:23;14.00;99.90
53045;DHT22;38930;52.766;6.884;2022-10-16T17:20:50;13.90;99.90